createdAt,value
2022-11-13T00:00:29.832Z,6.90
2022-11-13T00:01:29.796Z,6.81
2022-11-13T00:02:29.765Z,6.86
2022-11-13T00:03:29.698Z,6.96
2022-11-13T00:04:29.661Z,6.82
2022-11-13T00:05:29.611Z,6.86
2022-11-13T00:06:29.571Z,6.86
2022-11-13T00:07:29.581Z,6.87
2022-11-13T00:08:29.965Z,6.90
2022-11-13T00:09:29.520Z,6.83
2022-11-13T00:10:29.400Z,6.83
2022-11-13T00:11:29.357Z,6.90
2022-11-13T00:12:29.328Z,6.86
2022-11-13T00:13:30.600Z,6.86
2022-11-13T00:14:29.229Z,6.83
2022-11-13T00:15:29.186Z,6.79
2022-11-13T00:16:29.151Z,6.79
2022-11-13T00:17:29.104Z,6.72
2022-11-13T00:18:29.468Z,6.82
2022-11-13T00:19:29.014Z,6.83
2022-11-13T00:20:28.978Z,6.75
2022-11-13T00:21:28.930Z,6.72
2022-11-13T00:22:28.890Z,6.78
2022-11-13T00:23:28.858Z,6.78
2022-11-13T00:24:28.803Z,6.78
2022-11-13T00:25:28.838Z,6.86
2022-11-13T00:26:28.730Z,6.82
2022-11-13T00:27:28.697Z,6.87
2022-11-13T00:28:29.081Z,6.87
2022-11-13T00:29:28.602Z,6.87
2022-11-13T00:30:28.550Z,6.81
2022-11-13T00:31:28.518Z,6.90
2022-11-13T00:32:28.463Z,6.73
2022-11-13T00:33:54.956Z,6.76
2022-11-13T00:34:48.710Z,6.75
2022-11-13T00:35:28.338Z,6.72
2022-11-13T00:36:28.295Z,6.69
2022-11-13T00:37:28.245Z,6.61
2022-11-13T00:38:28.503Z,6.73
2022-11-13T00:39:28.165Z,6.64
2022-11-13T00:40:28.139Z,6.64
2022-11-13T00:41:28.162Z,6.61
2022-11-13T00:42:28.045Z,6.60
2022-11-13T00:43:28.003Z,6.69
2022-11-13T00:44:27.953Z,6.71
2022-11-13T00:45:27.906Z,6.64
2022-11-13T00:46:27.882Z,6.64
2022-11-13T00:47:27.824Z,6.64
2022-11-13T00:48:28.003Z,6.64
2022-11-13T00:49:27.739Z,6.61
2022-11-13T00:50:27.694Z,6.61
2022-11-13T00:51:27.664Z,6.64
2022-11-13T00:52:27.609Z,6.55
2022-11-13T00:53:27.568Z,6.58
2022-11-13T00:54:27.543Z,6.72
2022-11-13T00:55:27.501Z,6.58
2022-11-13T00:56:27.446Z,6.55
2022-11-13T00:57:27.471Z,6.57
2022-11-13T00:58:27.897Z,6.54
2022-11-13T00:59:27.312Z,6.60
2022-11-13T01:00:27.267Z,6.60
2022-11-13T01:01:27.275Z,6.63
2022-11-13T01:02:27.194Z,6.55
2022-11-13T01:03:27.142Z,6.58
2022-11-13T01:04:27.102Z,6.58
2022-11-13T01:05:27.053Z,6.53
2022-11-13T01:06:27.014Z,6.58
2022-11-13T01:07:26.988Z,6.46
2022-11-13T01:08:27.315Z,6.53
2022-11-13T01:09:26.886Z,6.48
2022-11-13T01:10:26.848Z,6.63
2022-11-13T01:11:26.797Z,6.50
2022-11-13T01:12:26.773Z,6.57
2022-11-13T01:13:26.794Z,6.50
2022-11-13T01:14:26.672Z,6.54
2022-11-13T01:15:26.632Z,6.54
2022-11-13T01:16:26.590Z,6.54
2022-11-13T01:17:26.543Z,6.61
2022-11-13T01:18:26.848Z,6.57
2022-11-13T01:19:26.459Z,6.55
2022-11-13T01:20:26.416Z,6.54
2022-11-13T01:21:26.374Z,6.61
2022-11-13T01:22:26.339Z,6.54
2022-11-13T01:23:26.310Z,6.55
2022-11-13T01:24:26.245Z,6.73
2022-11-13T01:25:26.204Z,6.78
2022-11-13T01:26:26.162Z,6.83
2022-11-13T01:27:26.118Z,6.76
2022-11-13T01:28:26.431Z,6.83
2022-11-13T01:29:26.116Z,6.75
2022-11-13T01:30:25.989Z,6.87
2022-11-13T01:31:25.943Z,6.76
2022-11-13T01:32:25.904Z,6.79
2022-11-13T01:33:25.869Z,6.89
2022-11-13T01:34:25.830Z,7.04
2022-11-13T01:35:25.774Z,7.16
2022-11-13T01:36:25.731Z,7.19
2022-11-13T01:37:25.689Z,7.24
2022-11-13T01:38:25.950Z,7.18
2022-11-13T01:39:25.602Z,7.27
2022-11-13T01:40:25.574Z,7.19
2022-11-13T01:41:25.523Z,7.24
2022-11-13T01:42:25.474Z,7.39
2022-11-13T01:43:25.429Z,7.47
2022-11-13T01:44:25.394Z,7.55
2022-11-13T01:45:25.426Z,7.71
2022-11-13T01:46:25.318Z,7.84
2022-11-13T01:47:25.261Z,7.95
2022-11-13T01:48:25.428Z,8.07
2022-11-13T01:49:25.175Z,8.14
2022-11-13T01:50:25.141Z,8.25
2022-11-13T01:51:25.094Z,8.34
2022-11-13T01:52:25.066Z,8.40
2022-11-13T01:53:25.008Z,8.47
2022-11-13T01:54:24.960Z,8.65
2022-11-13T01:55:24.926Z,8.76
2022-11-13T01:56:24.883Z,8.71
2022-11-13T01:57:24.838Z,8.70
2022-11-13T01:58:24.988Z,8.75
2022-11-13T01:59:24.749Z,8.86
2022-11-13T02:00:24.713Z,8.82
2022-11-13T02:01:24.810Z,8.93
2022-11-13T02:02:24.641Z,8.96
2022-11-13T02:03:24.589Z,8.98
2022-11-13T02:04:24.543Z,9.00
2022-11-13T02:05:24.496Z,8.93
2022-11-13T02:06:24.458Z,8.94
2022-11-13T02:07:24.471Z,8.98
2022-11-13T02:08:24.379Z,9.00
2022-11-13T02:09:24.331Z,8.98
2022-11-13T02:10:24.292Z,9.04
2022-11-13T02:11:24.245Z,9.06
2022-11-13T02:12:24.218Z,9.03
2022-11-13T02:13:24.158Z,9.15
2022-11-13T02:14:24.119Z,9.06
2022-11-13T02:15:24.075Z,9.13
2022-11-13T02:16:24.037Z,9.12
2022-11-13T02:17:24.067Z,9.12
2022-11-13T02:18:23.966Z,9.08
2022-11-13T02:19:23.906Z,9.15
2022-11-13T02:20:23.865Z,9.19
2022-11-13T02:21:23.827Z,9.17
2022-11-13T02:22:23.783Z,9.20
2022-11-13T02:23:23.735Z,9.10
2022-11-13T02:24:23.718Z,9.08
2022-11-13T02:25:23.653Z,9.16
2022-11-13T02:26:23.612Z,9.10
2022-11-13T02:27:23.567Z,9.06
2022-11-13T02:28:23.524Z,9.01
2022-11-13T02:29:23.483Z,8.96
2022-11-13T02:30:26.873Z,8.98
2022-11-13T02:31:23.400Z,8.97
2022-11-13T02:32:23.359Z,9.01
2022-11-13T02:33:23.390Z,9.01
2022-11-13T02:34:23.277Z,8.98
2022-11-13T02:35:23.247Z,8.89
2022-11-13T02:36:23.191Z,8.93
2022-11-13T02:37:23.146Z,8.82
2022-11-13T02:38:23.116Z,8.82
2022-11-13T02:39:23.067Z,8.86
2022-11-13T02:40:23.022Z,8.86
2022-11-13T02:41:22.990Z,8.75
2022-11-13T02:42:22.945Z,8.80
2022-11-13T02:43:22.895Z,8.76
2022-11-13T02:44:22.872Z,8.67
2022-11-13T02:45:22.814Z,8.71
2022-11-13T02:46:22.781Z,8.80
2022-11-13T02:47:22.742Z,8.83
2022-11-13T02:48:22.693Z,8.76
2022-11-13T02:49:22.721Z,8.70
2022-11-13T02:50:22.603Z,8.76
2022-11-13T02:51:22.559Z,8.70
2022-11-13T02:52:22.592Z,8.71
2022-11-13T02:53:22.486Z,8.67
2022-11-13T02:54:22.443Z,8.70
2022-11-13T02:55:22.406Z,8.67
2022-11-13T02:56:22.351Z,8.70
2022-11-13T02:57:22.303Z,8.83
2022-11-13T02:58:22.263Z,8.76
2022-11-13T02:59:22.220Z,8.64
2022-11-13T03:00:22.192Z,8.61
2022-11-13T03:01:22.195Z,8.67
2022-11-13T03:02:22.099Z,8.76
2022-11-13T03:03:48.081Z,8.78
2022-11-13T03:04:22.013Z,8.57
2022-11-13T03:05:22.050Z,8.65
2022-11-13T03:06:21.927Z,8.67
2022-11-13T03:07:21.952Z,8.80
2022-11-13T03:08:21.844Z,8.76
2022-11-13T03:09:21.809Z,8.76
2022-11-13T03:10:21.777Z,8.63
2022-11-13T03:11:21.731Z,8.54
2022-11-13T03:12:21.674Z,8.61
2022-11-13T03:13:21.640Z,8.58
2022-11-13T03:14:21.603Z,8.55
2022-11-13T03:15:21.560Z,8.54
2022-11-13T03:16:21.514Z,8.47
2022-11-13T03:17:21.467Z,8.37
2022-11-13T03:18:21.416Z,8.39
2022-11-13T03:19:21.379Z,8.32
2022-11-13T03:20:21.336Z,8.32
2022-11-13T03:21:21.387Z,8.29
2022-11-13T03:22:21.250Z,8.21
2022-11-13T03:23:21.214Z,8.25
2022-11-13T03:24:21.163Z,8.17
2022-11-13T03:25:21.133Z,8.17
2022-11-13T03:26:21.077Z,8.17
2022-11-13T03:27:21.057Z,8.20
2022-11-13T03:28:21.012Z,8.18
2022-11-13T03:29:20.954Z,8.18
2022-11-13T03:30:20.924Z,8.18
2022-11-13T03:31:20.871Z,8.20
2022-11-13T03:32:20.853Z,8.27
2022-11-13T03:33:20.791Z,8.31
2022-11-13T03:34:20.748Z,8.24
2022-11-13T03:35:20.711Z,8.27
2022-11-13T03:36:20.668Z,8.27
2022-11-13T03:37:20.690Z,8.22
2022-11-13T03:38:20.582Z,8.28
2022-11-13T03:39:20.528Z,8.18
2022-11-13T03:40:20.489Z,8.17
2022-11-13T03:41:20.445Z,8.14
2022-11-13T03:42:20.410Z,8.13
2022-11-13T03:43:20.362Z,8.13
2022-11-13T03:44:20.340Z,8.13
2022-11-13T03:45:20.422Z,8.07
2022-11-13T03:46:20.236Z,8.03
2022-11-13T03:47:20.193Z,8.13
2022-11-13T03:48:20.150Z,8.09
2022-11-13T03:49:20.120Z,8.06
2022-11-13T03:50:20.075Z,8.03
2022-11-13T03:51:20.026Z,8.00
2022-11-13T03:52:19.982Z,7.86
2022-11-13T03:53:20.015Z,7.89
2022-11-13T03:54:19.909Z,7.79
2022-11-13T03:55:19.873Z,7.73
2022-11-13T03:56:19.816Z,7.62
2022-11-13T03:57:19.773Z,7.58
2022-11-13T03:58:19.731Z,7.45
2022-11-13T03:59:19.693Z,7.52
2022-11-13T04:00:19.641Z,7.44
2022-11-13T04:01:19.643Z,7.41
2022-11-13T04:02:19.555Z,7.21
2022-11-13T04:03:19.528Z,7.24
2022-11-13T04:04:19.471Z,7.21
2022-11-13T04:05:22.709Z,7.07
2022-11-13T04:06:19.384Z,7.05
2022-11-13T04:07:19.395Z,7.04
2022-11-13T04:08:19.296Z,6.93
2022-11-13T04:09:19.337Z,6.78
2022-11-13T04:10:19.226Z,6.82
2022-11-13T04:11:19.169Z,6.68
2022-11-13T04:12:19.129Z,6.65
2022-11-13T04:13:19.084Z,6.69
2022-11-13T04:14:19.044Z,6.55
2022-11-13T04:15:19.004Z,6.58
2022-11-13T04:16:18.980Z,6.54
2022-11-13T04:17:18.925Z,6.50
2022-11-13T04:18:18.872Z,6.45
2022-11-13T04:19:18.840Z,6.42
2022-11-13T04:20:18.786Z,6.36
2022-11-13T04:21:18.755Z,6.27
2022-11-13T04:22:18.712Z,6.35
2022-11-13T04:23:18.666Z,6.36
2022-11-13T04:24:18.633Z,6.43
2022-11-13T04:25:18.651Z,6.40
2022-11-13T04:26:18.528Z,6.35
2022-11-13T04:27:18.487Z,6.35
2022-11-13T04:28:18.446Z,6.33
2022-11-13T04:29:18.411Z,6.32
2022-11-13T04:30:18.363Z,6.32
2022-11-13T04:31:18.320Z,6.27
2022-11-13T04:32:18.274Z,6.11
2022-11-13T04:33:18.231Z,6.16
2022-11-13T04:34:18.189Z,6.14
2022-11-13T04:35:18.165Z,6.10
2022-11-13T04:36:18.128Z,6.17
2022-11-13T04:37:18.060Z,6.19
2022-11-13T04:38:18.018Z,6.11
2022-11-13T04:39:17.974Z,6.03
2022-11-13T04:40:17.993Z,5.92
2022-11-13T04:41:17.972Z,5.92
2022-11-13T04:42:17.843Z,5.92
2022-11-13T04:43:17.800Z,5.95
2022-11-13T04:44:17.755Z,5.78
2022-11-13T04:45:17.714Z,5.87
2022-11-13T04:46:17.666Z,5.88
2022-11-13T04:47:17.638Z,5.78
2022-11-13T04:48:17.583Z,5.77
2022-11-13T04:49:17.542Z,5.83
2022-11-13T04:50:17.497Z,5.70
2022-11-13T04:51:17.458Z,5.80
2022-11-13T04:52:17.411Z,5.78
2022-11-13T04:53:17.382Z,5.78
2022-11-13T04:54:17.323Z,5.80
2022-11-13T04:55:17.282Z,5.85
2022-11-13T04:56:17.242Z,5.92
2022-11-13T04:57:17.273Z,5.87
2022-11-13T04:58:17.151Z,5.83
2022-11-13T04:59:17.119Z,5.84
2022-11-13T05:00:17.064Z,5.78
2022-11-13T05:01:17.087Z,5.85
2022-11-13T05:02:16.978Z,5.84
2022-11-13T05:03:16.942Z,5.75
2022-11-13T05:04:16.893Z,5.74
2022-11-13T05:05:16.866Z,5.73
2022-11-13T05:06:16.808Z,5.63
2022-11-13T05:07:16.792Z,5.48
2022-11-13T05:08:16.724Z,5.65
2022-11-13T05:09:16.677Z,5.63
2022-11-13T05:10:16.642Z,5.63
2022-11-13T05:11:16.590Z,5.60
2022-11-13T05:12:16.546Z,5.67
2022-11-13T05:13:16.577Z,5.59
2022-11-13T05:14:16.461Z,5.52
2022-11-13T05:15:16.424Z,5.47
2022-11-13T05:16:16.376Z,5.49
2022-11-13T05:17:16.330Z,5.55
2022-11-13T05:18:16.283Z,5.55
2022-11-13T05:19:16.243Z,5.47
2022-11-13T05:20:16.207Z,5.42
2022-11-13T05:21:16.156Z,5.47
2022-11-13T05:22:16.110Z,5.44
2022-11-13T05:23:16.077Z,5.38
2022-11-13T05:24:16.025Z,5.35
2022-11-13T05:25:15.983Z,5.33
2022-11-13T05:26:15.936Z,5.23
2022-11-13T05:27:17.507Z,5.37
2022-11-13T05:28:15.861Z,5.30
2022-11-13T05:29:15.887Z,5.27
2022-11-13T05:30:15.764Z,5.27
2022-11-13T05:31:15.723Z,5.14
2022-11-13T05:32:15.680Z,5.27
2022-11-13T05:33:15.635Z,5.20
2022-11-13T05:34:15.605Z,5.17
2022-11-13T05:35:15.547Z,5.09
2022-11-13T05:36:15.504Z,5.12
2022-11-13T05:37:15.463Z,5.06
2022-11-13T05:38:15.418Z,5.11
2022-11-13T05:39:15.374Z,4.97
2022-11-13T05:40:15.339Z,5.06
2022-11-13T05:41:15.288Z,4.94
2022-11-13T05:42:15.253Z,4.99
2022-11-13T05:43:15.199Z,4.90
2022-11-13T05:44:15.182Z,4.83
2022-11-13T05:45:15.188Z,4.83
2022-11-13T05:46:15.068Z,4.86
2022-11-13T05:47:15.026Z,4.87
2022-11-13T05:48:14.991Z,4.83
2022-11-13T05:49:14.938Z,4.87
2022-11-13T05:50:14.892Z,4.84
2022-11-13T05:51:14.851Z,4.80
2022-11-13T05:52:14.806Z,4.74
2022-11-13T05:53:14.761Z,4.79
2022-11-13T05:54:14.729Z,4.77
2022-11-13T05:55:14.675Z,4.83
2022-11-13T05:56:14.632Z,4.80
2022-11-13T05:57:14.587Z,4.71
2022-11-13T05:58:14.542Z,4.74
2022-11-13T05:59:14.516Z,4.80
2022-11-13T06:00:14.456Z,4.94
2022-11-13T06:01:14.490Z,4.77
2022-11-13T06:02:14.398Z,4.90
2022-11-13T06:03:14.328Z,4.74
2022-11-13T06:04:14.282Z,4.80
2022-11-13T06:05:14.250Z,4.72
2022-11-13T06:06:14.194Z,4.65
2022-11-13T06:07:14.232Z,4.68
2022-11-13T06:08:14.110Z,4.77
2022-11-13T06:09:14.062Z,4.69
2022-11-13T06:10:14.017Z,4.74
2022-11-13T06:11:13.992Z,4.68
2022-11-13T06:12:13.941Z,4.74
2022-11-13T06:13:13.891Z,4.64
2022-11-13T06:14:13.843Z,4.67
2022-11-13T06:15:13.800Z,4.59
2022-11-13T06:16:13.754Z,4.62
2022-11-13T06:17:13.788Z,4.56
2022-11-13T06:18:13.681Z,4.54
2022-11-13T06:19:13.625Z,4.65
2022-11-13T06:20:13.582Z,4.54
2022-11-13T06:21:13.535Z,4.75
2022-11-13T06:22:13.493Z,4.74
2022-11-13T06:23:13.461Z,4.59
2022-11-13T06:24:13.454Z,4.64
2022-11-13T06:25:13.366Z,4.51
2022-11-13T06:26:13.318Z,4.67
2022-11-13T06:27:13.276Z,4.68
2022-11-13T06:28:13.248Z,4.74
2022-11-13T06:29:13.187Z,4.71
2022-11-13T06:30:13.146Z,4.75
2022-11-13T06:31:13.098Z,4.77
2022-11-13T06:32:13.061Z,4.83
2022-11-13T06:33:13.087Z,4.79
2022-11-13T06:34:12.975Z,4.69
2022-11-13T06:35:12.923Z,4.71
2022-11-13T06:36:12.881Z,4.68
2022-11-13T06:37:12.842Z,4.77
2022-11-13T06:38:12.791Z,4.68
2022-11-13T06:39:12.783Z,4.74
2022-11-13T06:40:12.701Z,4.71
2022-11-13T06:41:12.657Z,4.67
2022-11-13T06:42:12.616Z,4.67
2022-11-13T06:43:12.572Z,4.61
2022-11-13T06:44:12.527Z,4.64
2022-11-13T06:45:12.505Z,4.62
2022-11-13T06:46:12.460Z,4.61
2022-11-13T06:47:12.398Z,4.61
2022-11-13T06:48:12.351Z,4.59
2022-11-13T06:49:12.381Z,4.65
2022-11-13T06:50:12.268Z,4.65
2022-11-13T06:51:12.218Z,4.47
2022-11-13T06:52:12.187Z,4.51
2022-11-13T06:53:12.137Z,4.51
2022-11-13T06:54:12.087Z,4.53
2022-11-13T06:55:12.042Z,4.50
2022-11-13T06:56:12.001Z,4.50
2022-11-13T06:57:11.957Z,4.54
2022-11-13T06:58:11.926Z,4.57
2022-11-13T06:59:11.872Z,4.62
2022-11-13T07:00:11.824Z,4.57
2022-11-13T07:01:11.847Z,4.64
2022-11-13T07:02:11.734Z,4.59
2022-11-13T07:03:11.696Z,4.67
2022-11-13T07:04:11.667Z,4.62
2022-11-13T07:05:11.678Z,4.65
2022-11-13T07:06:11.558Z,4.67
2022-11-13T07:07:11.525Z,4.68
2022-11-13T07:08:11.473Z,4.67
2022-11-13T07:09:11.430Z,4.62
2022-11-13T07:10:11.396Z,4.54
2022-11-13T07:11:11.343Z,4.62
2022-11-13T07:12:11.296Z,4.69
2022-11-13T07:13:11.256Z,4.61
2022-11-13T07:14:11.211Z,4.62
2022-11-13T07:15:11.170Z,4.56
2022-11-13T07:16:16.846Z,4.54
2022-11-13T07:17:11.084Z,4.54
2022-11-13T07:18:11.045Z,4.54
2022-11-13T07:19:10.993Z,4.54
2022-11-13T07:20:10.947Z,4.43
2022-11-13T07:21:10.978Z,4.50
2022-11-13T07:22:10.870Z,4.59
2022-11-13T07:23:10.816Z,4.71
2022-11-13T07:24:16.587Z,4.64
2022-11-13T07:25:10.731Z,4.69
2022-11-13T07:26:10.684Z,4.64
2022-11-13T07:27:10.642Z,4.72
2022-11-13T07:28:10.606Z,4.86
2022-11-13T07:29:10.553Z,4.75
2022-11-13T07:30:10.509Z,4.90
2022-11-13T07:31:10.466Z,4.91
2022-11-13T07:32:10.422Z,5.05
2022-11-13T07:33:10.384Z,5.19
2022-11-13T07:34:10.351Z,5.65
2022-11-13T07:35:10.289Z,6.05
2022-11-13T07:36:10.249Z,6.35
2022-11-13T07:37:10.281Z,6.64
2022-11-13T07:38:10.170Z,6.94
2022-11-13T07:39:10.121Z,7.19
2022-11-13T07:40:10.078Z,7.55
2022-11-13T07:41:10.030Z,7.71
2022-11-13T07:42:10.007Z,7.92
2022-11-13T07:43:09.945Z,8.25
2022-11-13T07:44:11.115Z,8.32
2022-11-13T07:45:09.863Z,8.60
2022-11-13T07:46:09.821Z,8.78
2022-11-13T07:47:09.777Z,8.79
2022-11-13T07:48:09.750Z,8.97
2022-11-13T07:49:09.694Z,9.20
2022-11-13T07:50:10.969Z,9.31
2022-11-13T07:51:09.615Z,9.53
2022-11-13T07:52:09.577Z,9.59
2022-11-13T07:53:09.629Z,9.71
2022-11-13T07:54:09.492Z,9.80
2022-11-13T07:55:09.449Z,10.01
2022-11-13T07:56:09.411Z,9.99
2022-11-13T07:57:09.368Z,10.11
2022-11-13T07:58:09.333Z,10.16
2022-11-13T07:59:09.304Z,10.31
2022-11-13T08:00:09.251Z,10.42
2022-11-13T08:01:09.244Z,10.43
2022-11-13T08:02:09.173Z,10.46
2022-11-13T08:03:09.134Z,10.57
2022-11-13T08:04:09.096Z,10.62
2022-11-13T08:05:09.062Z,10.87
2022-11-13T08:06:09.030Z,10.90
2022-11-13T08:07:09.007Z,11.11
2022-11-13T08:08:08.944Z,11.16
2022-11-13T08:09:08.977Z,11.11
2022-11-13T08:10:08.868Z,11.27
2022-11-13T08:11:08.822Z,11.41
2022-11-13T08:12:08.798Z,11.48
2022-11-13T08:13:08.752Z,11.48
2022-11-13T08:14:08.709Z,11.59
2022-11-13T08:15:13.248Z,11.72
2022-11-13T08:16:08.633Z,11.74
2022-11-13T08:17:08.595Z,12.00
2022-11-13T08:18:08.573Z,11.93
2022-11-13T08:19:08.521Z,11.96
2022-11-13T08:20:08.493Z,11.87
2022-11-13T08:21:14.537Z,11.69
2022-11-13T08:22:08.411Z,11.69
2022-11-13T08:23:08.375Z,11.97
2022-11-13T08:24:08.338Z,11.87
2022-11-13T08:25:08.374Z,11.97
2022-11-13T08:26:08.278Z,12.00
2022-11-13T08:27:08.227Z,12.07
2022-11-13T08:28:12.788Z,12.21
2022-11-13T08:29:08.154Z,12.33
2022-11-13T08:30:08.118Z,12.46
2022-11-13T08:31:08.092Z,12.36
2022-11-13T08:32:08.045Z,12.80
2022-11-13T08:33:08.008Z,13.01
2022-11-13T08:34:07.972Z,12.98
2022-11-13T08:35:07.937Z,13.01
2022-11-13T08:36:07.911Z,13.04
2022-11-13T08:37:07.862Z,12.98
2022-11-13T08:38:07.828Z,13.19
2022-11-13T08:39:07.794Z,13.46
2022-11-13T08:40:07.761Z,13.53
2022-11-13T08:41:09.579Z,13.68
2022-11-13T08:42:07.702Z,13.73
2022-11-13T08:43:07.649Z,13.98
2022-11-13T08:44:07.611Z,13.88
2022-11-13T08:45:07.577Z,13.81
2022-11-13T08:46:07.544Z,14.01
2022-11-13T08:47:07.517Z,14.13
2022-11-13T08:48:07.480Z,14.34
2022-11-13T08:49:07.435Z,14.39
2022-11-13T08:50:07.400Z,14.42
2022-11-13T08:51:07.365Z,14.71
2022-11-13T08:52:07.333Z,14.63
2022-11-13T08:53:07.307Z,14.60
2022-11-13T08:54:07.259Z,14.52
2022-11-13T08:55:07.222Z,14.35
2022-11-13T08:56:07.191Z,14.61
2022-11-13T08:57:07.232Z,14.69
2022-11-13T08:58:07.123Z,14.86
2022-11-13T08:59:07.098Z,14.97
2022-11-13T09:00:07.052Z,14.69
2022-11-13T09:01:07.013Z,14.52
2022-11-13T09:02:06.983Z,14.42
2022-11-13T09:03:06.945Z,14.45
2022-11-13T09:04:06.975Z,14.49
2022-11-13T09:05:06.887Z,14.45
2022-11-13T09:06:06.840Z,14.71
2022-11-13T09:07:06.897Z,14.71
2022-11-13T09:08:06.776Z,14.78
2022-11-13T09:09:06.744Z,14.90
2022-11-13T09:10:06.734Z,14.90
2022-11-13T09:11:06.673Z,14.95
2022-11-13T09:12:06.634Z,15.16
2022-11-13T09:13:06.677Z,15.19
2022-11-13T09:14:06.566Z,15.30
2022-11-13T09:15:06.531Z,15.60
2022-11-13T09:16:06.511Z,15.64
2022-11-13T09:17:06.462Z,15.43
2022-11-13T09:18:06.428Z,15.56
2022-11-13T09:19:06.395Z,15.44
2022-11-13T09:20:08.674Z,15.07
2022-11-13T09:21:06.332Z,14.97
2022-11-13T09:22:06.307Z,14.80
2022-11-13T09:23:06.256Z,14.72
2022-11-13T09:24:06.223Z,14.64
2022-11-13T09:25:06.189Z,14.98
2022-11-13T09:26:06.163Z,15.12
2022-11-13T09:27:06.117Z,15.15
2022-11-13T09:28:06.092Z,15.25
2022-11-13T09:29:06.130Z,15.46
2022-11-13T09:30:06.021Z,15.77
2022-11-13T09:31:05.979Z,15.84
2022-11-13T09:32:05.957Z,15.96
2022-11-13T09:33:05.916Z,16.29
2022-11-13T09:34:05.883Z,16.29
2022-11-13T09:35:05.845Z,16.25
2022-11-13T09:36:05.815Z,16.29
2022-11-13T09:37:05.777Z,16.16
2022-11-13T09:38:11.163Z,16.25
2022-11-13T09:39:05.727Z,16.50
2022-11-13T09:40:05.674Z,16.52
2022-11-13T09:41:05.640Z,16.29
2022-11-13T09:42:05.625Z,16.36
2022-11-13T09:43:05.573Z,16.14
2022-11-13T09:44:05.563Z,16.08
2022-11-13T09:45:05.581Z,16.01
2022-11-13T09:46:05.475Z,16.45
2022-11-13T09:47:05.438Z,16.91
2022-11-13T09:48:05.405Z,17.05
2022-11-13T09:49:05.367Z,17.14
2022-11-13T09:50:05.348Z,17.42
2022-11-13T09:51:05.301Z,17.63
2022-11-13T09:52:06.789Z,18.13
2022-11-13T09:53:05.235Z,18.46
2022-11-13T09:54:05.221Z,18.26
2022-11-13T09:55:05.162Z,18.34
2022-11-13T09:56:05.145Z,18.17
2022-11-13T09:57:05.091Z,17.65
2022-11-13T09:58:05.081Z,17.39
2022-11-13T09:59:05.029Z,17.07
2022-11-13T10:00:04.996Z,16.90
2022-11-13T10:01:05.120Z,16.65
2022-11-13T10:02:04.927Z,16.66
2022-11-13T10:03:04.895Z,16.80
2022-11-13T10:04:04.873Z,16.75
2022-11-13T10:05:04.826Z,16.50
2022-11-13T10:06:04.791Z,16.72
2022-11-13T10:07:04.819Z,16.87
2022-11-13T10:08:04.724Z,16.99
2022-11-13T10:09:04.703Z,17.14
2022-11-13T10:10:04.655Z,17.32
2022-11-13T10:11:04.621Z,17.53
2022-11-13T10:12:04.593Z,17.65
2022-11-13T10:13:04.553Z,17.89
2022-11-13T10:14:04.521Z,18.20
2022-11-13T10:15:04.502Z,18.25
2022-11-13T10:16:04.454Z,18.51
2022-11-13T10:17:04.496Z,18.47
2022-11-13T10:18:04.387Z,18.69
2022-11-13T10:19:04.352Z,18.87
2022-11-13T10:20:04.319Z,19.10
2022-11-13T10:21:09.331Z,19.28
2022-11-13T10:22:26.529Z,19.52
2022-11-13T10:23:04.216Z,19.80
2022-11-13T10:24:04.184Z,20.15
2022-11-13T10:25:04.148Z,20.27
2022-11-13T10:26:04.119Z,19.95
2022-11-13T10:27:04.095Z,19.67
2022-11-13T10:28:21.493Z,19.82
2022-11-13T10:29:04.099Z,19.80
2022-11-13T10:30:03.995Z,19.82
2022-11-13T10:31:03.952Z,19.50
2022-11-13T10:32:03.916Z,19.20
2022-11-13T10:33:03.969Z,18.91
2022-11-13T10:34:03.853Z,18.97
2022-11-13T10:35:03.823Z,19.20
2022-11-13T10:36:03.785Z,19.31
2022-11-13T10:37:03.750Z,19.24
2022-11-13T10:38:08.223Z,19.23
2022-11-13T10:39:03.697Z,19.50
2022-11-13T10:40:03.657Z,19.53
2022-11-13T10:41:03.617Z,19.30
2022-11-13T10:42:03.585Z,19.20
2022-11-13T10:43:03.565Z,19.38
2022-11-13T10:44:03.519Z,19.58
2022-11-13T10:45:05.880Z,19.79
2022-11-13T10:46:03.482Z,19.62
2022-11-13T10:47:03.420Z,19.50
2022-11-13T10:48:05.041Z,19.71
2022-11-13T10:49:03.427Z,19.76
2022-11-13T10:50:03.324Z,19.42
2022-11-13T10:51:03.300Z,19.50
2022-11-13T10:52:08.404Z,19.75
2022-11-13T10:53:03.222Z,19.64
2022-11-13T10:54:03.189Z,19.49
2022-11-13T10:55:03.156Z,19.47
2022-11-13T10:56:03.128Z,19.25
2022-11-13T10:57:03.105Z,19.21
2022-11-13T10:58:03.059Z,19.32
2022-11-13T10:59:03.028Z,19.45
2022-11-13T11:00:02.998Z,19.55
2022-11-13T11:01:03.033Z,19.42
2022-11-13T11:02:02.925Z,19.35
2022-11-13T11:03:02.918Z,19.58
2022-11-13T11:04:02.861Z,19.53
2022-11-13T11:05:02.904Z,19.30
2022-11-13T11:06:02.792Z,19.16
2022-11-13T11:07:19.711Z,19.09
2022-11-13T11:08:02.792Z,19.31
2022-11-13T11:09:02.704Z,19.28
2022-11-13T11:10:02.659Z,19.10
2022-11-13T11:11:02.630Z,19.30
2022-11-13T11:12:02.592Z,19.31
2022-11-13T11:13:02.562Z,19.42
2022-11-13T11:14:02.527Z,19.58
2022-11-13T11:15:02.512Z,19.49
2022-11-13T11:16:02.463Z,19.58
2022-11-13T11:17:02.425Z,19.76
2022-11-13T11:18:02.391Z,19.68
2022-11-13T11:19:03.163Z,19.42
2022-11-13T11:20:02.326Z,19.34
2022-11-13T11:21:02.376Z,19.46
2022-11-13T11:22:02.274Z,19.40
2022-11-13T11:23:02.225Z,19.61
2022-11-13T11:24:02.200Z,19.50
2022-11-13T11:25:02.158Z,19.64
2022-11-13T11:26:02.138Z,19.49
2022-11-13T11:27:02.104Z,19.57
2022-11-13T11:28:02.055Z,19.62
2022-11-13T11:29:02.022Z,19.52
2022-11-13T11:30:01.999Z,19.47
2022-11-13T11:31:01.963Z,19.39
2022-11-13T11:32:01.935Z,19.46
2022-11-13T11:33:01.891Z,19.28
2022-11-13T11:34:01.855Z,19.30
2022-11-13T11:35:01.823Z,19.46
2022-11-13T11:36:01.791Z,19.38
2022-11-13T11:37:01.854Z,19.45
2022-11-13T11:38:01.720Z,19.45
2022-11-13T11:39:01.687Z,19.49
2022-11-13T11:40:01.655Z,19.45
2022-11-13T11:41:01.618Z,19.49
2022-11-13T11:42:01.591Z,19.55
2022-11-13T11:43:01.561Z,19.45
2022-11-13T11:44:01.518Z,19.24
2022-11-13T11:45:01.484Z,19.06
2022-11-13T11:46:01.465Z,18.99
2022-11-13T11:47:01.419Z,19.32
2022-11-13T11:48:01.386Z,19.01
2022-11-13T11:49:01.376Z,19.06
2022-11-13T11:50:01.311Z,18.86
2022-11-13T11:51:01.288Z,18.96
2022-11-13T11:52:01.249Z,18.99
2022-11-13T11:53:01.287Z,19.34
2022-11-13T11:54:01.188Z,19.61
2022-11-13T11:55:01.149Z,19.55
2022-11-13T11:56:01.120Z,19.40
2022-11-13T11:57:01.086Z,19.57
2022-11-13T11:58:01.042Z,19.61
2022-11-13T11:59:01.023Z,19.78
2022-11-13T12:00:00.973Z,19.82
2022-11-13T12:01:00.943Z,19.83
2022-11-13T12:02:00.911Z,19.86
2022-11-13T12:03:00.887Z,19.76
2022-11-13T12:04:00.839Z,19.68
2022-11-13T12:05:00.896Z,19.68
2022-11-13T12:06:00.774Z,19.72
2022-11-13T12:07:00.813Z,19.85
2022-11-13T12:08:00.709Z,19.87
2022-11-13T12:09:00.766Z,19.82
2022-11-13T12:10:00.635Z,19.87
2022-11-13T12:11:00.620Z,19.95
2022-11-13T12:12:00.566Z,19.87
2022-11-13T12:13:00.536Z,19.75
2022-11-13T12:14:00.497Z,19.67
2022-11-13T12:15:00.469Z,19.57
2022-11-13T12:16:00.447Z,19.47
2022-11-13T12:17:00.398Z,19.49
2022-11-13T12:18:00.363Z,19.47
2022-11-13T12:19:00.334Z,19.40
2022-11-13T12:20:00.302Z,19.45
2022-11-13T12:21:00.273Z,19.49
2022-11-13T12:22:00.234Z,19.47
2022-11-13T12:23:00.198Z,19.24
2022-11-13T12:24:00.166Z,19.20
2022-11-13T12:25:00.205Z,19.09
2022-11-13T12:26:00.108Z,19.02
2022-11-13T12:27:00.061Z,19.05
2022-11-13T12:28:00.033Z,18.97
2022-11-13T12:28:59.997Z,18.87
2022-11-13T12:29:59.960Z,18.86
2022-11-13T12:30:59.924Z,18.86
2022-11-13T12:31:59.904Z,18.68
2022-11-13T12:32:59.862Z,18.64
2022-11-13T12:34:01.507Z,18.62
2022-11-13T12:34:59.798Z,18.54
2022-11-13T12:35:59.759Z,18.42
2022-11-13T12:36:59.724Z,18.41
2022-11-13T12:37:59.699Z,18.29
2022-11-13T12:38:59.658Z,18.28
2022-11-13T12:39:59.620Z,18.21
2022-11-13T12:40:59.665Z,18.20
2022-11-13T12:41:59.553Z,18.16
2022-11-13T12:42:59.525Z,18.10
2022-11-13T12:43:59.499Z,18.09
2022-11-13T12:44:59.449Z,18.10
2022-11-13T12:45:59.417Z,17.99
2022-11-13T12:46:59.384Z,18.01
2022-11-13T12:47:59.344Z,18.09
2022-11-13T12:48:59.310Z,17.89
2022-11-13T12:49:59.287Z,17.83
2022-11-13T12:50:59.240Z,17.87
2022-11-13T12:51:59.205Z,17.84
2022-11-13T12:52:59.168Z,17.77
2022-11-13T12:53:59.136Z,17.76
2022-11-13T12:54:59.099Z,17.80
2022-11-13T12:56:06.260Z,17.71
2022-11-13T12:56:59.027Z,17.83
2022-11-13T12:57:59.001Z,17.68
2022-11-13T12:59:28.693Z,17.70
2022-11-13T12:59:58.926Z,17.66
2022-11-13T13:00:58.941Z,17.70
2022-11-13T13:01:58.848Z,17.73
2022-11-13T13:02:58.829Z,17.77
2022-11-13T13:03:58.771Z,17.65
2022-11-13T13:04:58.736Z,17.62
2022-11-13T13:05:58.705Z,17.58
2022-11-13T13:06:58.707Z,17.60
2022-11-13T13:08:02.260Z,17.51